createdAt,value
2022-11-19T00:01:22.036Z,-5.61
2022-11-19T00:03:52.653Z,-5.62
2022-11-19T00:06:25.204Z,-5.65
2022-11-19T00:08:52.557Z,-5.63
2022-11-19T00:11:43.413Z,-5.67
2022-11-19T00:14:12.809Z,-5.68
2022-11-19T00:16:40.237Z,-5.69
2022-11-19T00:19:07.431Z,-5.73
2022-11-19T00:21:34.616Z,-5.79
2022-11-19T00:24:01.839Z,-5.83
2022-11-19T00:26:29.056Z,-5.79
2022-11-19T00:28:56.319Z,-5.79
2022-11-19T00:31:23.498Z,-5.76
2022-11-19T00:33:50.811Z,-5.72
2022-11-19T00:36:18.472Z,-5.70
2022-11-19T00:38:45.824Z,-5.66
2022-11-19T00:41:13.023Z,-5.72
2022-11-19T00:43:49.981Z,-5.72
2022-11-19T00:46:26.142Z,-5.71
2022-11-19T00:48:55.277Z,-5.71
2022-11-19T00:51:24.033Z,-5.66
2022-11-19T00:53:51.627Z,-5.72
2022-11-19T00:56:21.157Z,-5.67
2022-11-19T00:58:48.815Z,-5.70
2022-11-19T01:01:17.694Z,-5.73
2022-11-19T01:03:47.817Z,-5.72
2022-11-19T01:06:19.411Z,-5.77
2022-11-19T01:08:47.875Z,-5.78
2022-11-19T01:11:18.715Z,-5.71
2022-11-19T01:13:46.202Z,-5.68
2022-11-19T01:16:18.954Z,-5.72
2022-11-19T01:18:47.614Z,-5.69
2022-11-19T01:21:15.543Z,-5.70
2022-11-19T01:23:43.507Z,-5.71
2022-11-19T01:26:11.983Z,-5.73
2022-11-19T01:28:39.363Z,-5.73
2022-11-19T01:31:15.051Z,-5.72
2022-11-19T01:33:42.480Z,-5.72
2022-11-19T01:36:16.503Z,-5.72
2022-11-19T01:38:43.863Z,-5.70
2022-11-19T01:41:11.216Z,-5.77
2022-11-19T01:43:58.948Z,-5.74
2022-11-19T01:46:29.156Z,-5.79
2022-11-19T01:48:59.362Z,-5.78
2022-11-19T01:51:45.828Z,-5.77
2022-11-19T01:54:33.900Z,-5.72
2022-11-19T01:57:04.699Z,-5.78
2022-11-19T01:59:32.195Z,-5.81
2022-11-19T02:01:59.558Z,-5.76
2022-11-19T02:04:27.650Z,-5.77
2022-11-19T02:06:55.436Z,-5.80
2022-11-19T02:09:23.308Z,-5.78
2022-11-19T02:12:16.943Z,-5.79
2022-11-19T02:15:10.694Z,-5.79
2022-11-19T02:17:49.781Z,-5.82
2022-11-19T02:20:35.063Z,-5.82
2022-11-19T02:23:45.984Z,-5.86
2022-11-19T02:26:21.787Z,-5.91
2022-11-19T02:29:10.101Z,-5.90
2022-11-19T02:31:39.593Z,-5.89
2022-11-19T02:34:46.675Z,-5.90
2022-11-19T02:37:34.994Z,-5.90
2022-11-19T02:40:37.544Z,-5.91
2022-11-19T02:43:36.237Z,-5.89
2022-11-19T02:46:12.075Z,-5.87
2022-11-19T02:48:42.454Z,-5.83
2022-11-19T02:51:10.095Z,-5.79
2022-11-19T02:53:37.311Z,-5.80
2022-11-19T02:56:17.119Z,-5.85
2022-11-19T02:59:09.463Z,-5.83
2022-11-19T03:01:58.886Z,-5.85
2022-11-19T03:04:30.013Z,-5.89
2022-11-19T03:07:09.706Z,-5.92
2022-11-19T03:09:40.074Z,-5.88
2022-11-19T03:12:30.781Z,-5.88
2022-11-19T03:15:22.817Z,-5.88
2022-11-19T03:18:32.025Z,-5.86
2022-11-19T03:21:11.610Z,-5.93
2022-11-19T03:23:43.216Z,-5.92
2022-11-19T03:26:25.494Z,-5.91
2022-11-19T03:28:53.957Z,-5.89
2022-11-19T03:31:22.140Z,-5.91
2022-11-19T03:33:52.653Z,-5.85
2022-11-19T03:36:32.820Z,-5.83
2022-11-19T03:39:10.454Z,-5.78
2022-11-19T03:41:39.707Z,-5.76
2022-11-19T03:44:08.637Z,-5.73
2022-11-19T03:46:36.596Z,-5.81
2022-11-19T03:49:04.882Z,-5.87
2022-11-19T03:52:01.457Z,-5.78
2022-11-19T03:54:28.890Z,-5.81
2022-11-19T03:56:57.062Z,-5.80
2022-11-19T03:59:29.230Z,-5.84
2022-11-19T04:02:00.809Z,-5.82
2022-11-19T04:04:37.418Z,-5.80
2022-11-19T04:07:22.279Z,-5.81
2022-11-19T04:09:49.879Z,-5.82
2022-11-19T04:12:24.961Z,-5.80
2022-11-19T04:14:52.766Z,-5.78
2022-11-19T04:17:20.610Z,-5.77
2022-11-19T04:19:48.137Z,-5.76
2022-11-19T04:22:15.318Z,-5.78
2022-11-19T04:24:42.501Z,-5.76
2022-11-19T04:27:09.676Z,-5.77
2022-11-19T04:29:36.974Z,-5.74
2022-11-19T04:32:04.245Z,-5.73
2022-11-19T04:34:31.447Z,-5.77
2022-11-19T04:36:59.419Z,-5.76
2022-11-19T04:39:26.845Z,-5.79
2022-11-19T04:41:54.066Z,-5.83
2022-11-19T04:44:21.265Z,-5.82
2022-11-19T04:46:48.585Z,-5.81
2022-11-19T04:49:15.790Z,-5.82
2022-11-19T04:51:42.967Z,-5.82
2022-11-19T04:54:10.270Z,-5.78
2022-11-19T04:56:38.011Z,-5.73
2022-11-19T04:59:05.671Z,-5.75
2022-11-19T05:01:32.978Z,-5.73
2022-11-19T05:04:00.202Z,-5.75
2022-11-19T05:06:27.402Z,-5.77
2022-11-19T05:08:54.650Z,-5.72
2022-11-19T05:11:21.993Z,-5.73
2022-11-19T05:13:49.184Z,-5.72
2022-11-19T05:16:16.401Z,-5.72
2022-11-19T05:18:43.718Z,-5.69
2022-11-19T05:21:10.888Z,-5.71
2022-11-19T05:23:38.103Z,-5.68
2022-11-19T05:26:05.313Z,-5.65
2022-11-19T05:28:39.159Z,-5.62
2022-11-19T05:31:07.738Z,-5.60
2022-11-19T05:33:34.964Z,-5.56
2022-11-19T05:36:02.501Z,-5.55
2022-11-19T05:38:29.780Z,-5.52
2022-11-19T05:40:56.925Z,-5.43
2022-11-19T05:43:24.109Z,-5.38
2022-11-19T05:45:51.628Z,-5.35
2022-11-19T05:48:18.821Z,-5.32
2022-11-19T05:50:46.005Z,-5.25
2022-11-19T05:53:13.183Z,-5.16
2022-11-19T05:55:40.374Z,-5.12
2022-11-19T05:58:07.538Z,-5.10
2022-11-19T06:00:34.772Z,-5.11
2022-11-19T06:03:02.056Z,-5.12
2022-11-19T06:05:29.296Z,-5.10
2022-11-19T06:07:56.475Z,-5.12
2022-11-19T06:10:23.768Z,-5.08
2022-11-19T06:12:50.946Z,-5.04
2022-11-19T06:15:18.236Z,-5.03
2022-11-19T06:17:45.432Z,-5.06
2022-11-19T06:20:12.729Z,-5.12
2022-11-19T06:22:40.110Z,-5.15
2022-11-19T06:25:08.118Z,-5.14
2022-11-19T06:27:35.402Z,-5.16
2022-11-19T06:30:03.196Z,-5.17
2022-11-19T06:32:30.413Z,-5.21
2022-11-19T06:34:57.577Z,-5.17
2022-11-19T06:37:25.037Z,-5.17
2022-11-19T06:39:52.260Z,-5.19
2022-11-19T06:42:37.957Z,-5.18
2022-11-19T06:45:09.521Z,-5.22
2022-11-19T06:47:37.166Z,-5.19
2022-11-19T06:50:05.471Z,-5.16
2022-11-19T06:52:32.675Z,-5.15
2022-11-19T06:54:59.895Z,-5.12
2022-11-19T06:57:27.422Z,-5.12
2022-11-19T06:59:54.659Z,-5.10
2022-11-19T07:02:21.992Z,-5.12
2022-11-19T07:04:49.517Z,-5.00
2022-11-19T07:07:16.773Z,-5.00
2022-11-19T07:09:44.217Z,-4.91
2022-11-19T07:12:11.429Z,-4.90
2022-11-19T07:14:38.612Z,-4.83
2022-11-19T07:17:06.333Z,-4.77
2022-11-19T07:19:33.618Z,-4.78
2022-11-19T07:22:00.901Z,-4.74
2022-11-19T07:24:28.095Z,-4.71
2022-11-19T07:26:56.292Z,-4.65
2022-11-19T07:29:23.710Z,-4.60
2022-11-19T07:31:53.232Z,-4.62
2022-11-19T07:34:20.633Z,-4.70
2022-11-19T07:36:48.392Z,-4.63
2022-11-19T07:39:15.854Z,-4.60
2022-11-19T07:42:01.859Z,-4.58
2022-11-19T07:44:29.082Z,-4.55
2022-11-19T07:46:56.282Z,-4.51
2022-11-19T07:49:24.853Z,-4.50
2022-11-19T07:51:53.296Z,-4.50
2022-11-19T07:54:20.540Z,-4.49
2022-11-19T07:56:47.721Z,-4.42
2022-11-19T07:59:14.911Z,-4.32
2022-11-19T08:01:42.141Z,-4.25
2022-11-19T08:04:09.638Z,-4.10
2022-11-19T08:06:36.996Z,-4.00
2022-11-19T08:09:04.991Z,-3.89
2022-11-19T08:11:32.462Z,-3.84
2022-11-19T08:14:01.474Z,-3.69
2022-11-19T08:16:47.579Z,-3.49
2022-11-19T08:19:16.450Z,-3.28
2022-11-19T08:21:46.167Z,-3.00
2022-11-19T08:24:14.755Z,-2.76
2022-11-19T08:26:43.616Z,-2.57
2022-11-19T08:29:16.206Z,-2.38
2022-11-19T08:31:45.992Z,-2.26
2022-11-19T08:34:13.371Z,-2.11
2022-11-19T08:36:40.640Z,-1.96
2022-11-19T08:39:09.261Z,-1.79
2022-11-19T08:41:55.194Z,-1.74
2022-11-19T08:44:22.895Z,-1.53
2022-11-19T08:46:50.558Z,-1.43
2022-11-19T08:49:18.410Z,-1.31
2022-11-19T08:51:45.608Z,-1.34
2022-11-19T08:54:13.221Z,-1.20
2022-11-19T08:56:40.459Z,-1.06
2022-11-19T08:59:07.841Z,-1.02
2022-11-19T09:01:35.023Z,-1.02
2022-11-19T09:04:02.218Z,-0.94
2022-11-19T09:06:29.411Z,-0.83
2022-11-19T09:08:58.317Z,-0.83
2022-11-19T09:11:25.587Z,-0.78
2022-11-19T09:13:53.093Z,-0.73
2022-11-19T09:16:20.444Z,-0.85
2022-11-19T09:18:47.702Z,-0.95
2022-11-19T09:21:17.033Z,-1.07
2022-11-19T09:23:44.183Z,-1.13
2022-11-19T09:26:15.948Z,-1.25
2022-11-19T09:28:43.544Z,-1.25
2022-11-19T09:31:14.410Z,-1.07
2022-11-19T09:33:43.945Z,-1.04
2022-11-19T09:36:12.321Z,-1.05
2022-11-19T09:38:40.220Z,-1.12
2022-11-19T09:41:26.312Z,-1.13
2022-11-19T09:44:13.362Z,-1.12
2022-11-19T09:47:08.429Z,-1.02
2022-11-19T09:49:42.191Z,-0.97
2022-11-19T09:52:20.152Z,-0.99
2022-11-19T09:54:55.287Z,-0.90
2022-11-19T09:57:40.203Z,-0.75
2022-11-19T10:00:08.767Z,-0.55
2022-11-19T10:02:35.958Z,-0.24
2022-11-19T10:05:04.079Z,0.11
2022-11-19T10:07:53.634Z,0.37
2022-11-19T10:10:42.981Z,0.50
2022-11-19T10:13:22.662Z,0.68
2022-11-19T10:16:18.478Z,0.67
2022-11-19T10:19:23.152Z,0.65
2022-11-19T10:22:04.349Z,0.70
2022-11-19T10:24:50.047Z,0.72
2022-11-19T10:27:23.298Z,0.67
2022-11-19T10:29:54.320Z,0.70
2022-11-19T10:32:35.850Z,0.72
2022-11-19T10:35:17.196Z,0.67
2022-11-19T10:37:57.197Z,0.76
2022-11-19T10:40:31.498Z,0.68
2022-11-19T10:43:23.369Z,0.81
2022-11-19T10:45:50.791Z,0.80
2022-11-19T10:48:23.416Z,0.96
2022-11-19T10:50:51.354Z,0.90
2022-11-19T10:53:25.679Z,0.90
2022-11-19T10:56:05.185Z,1.00
2022-11-19T10:58:58.214Z,1.06
2022-11-19T11:01:40.240Z,1.14
2022-11-19T11:04:13.788Z,1.18
2022-11-19T11:06:55.051Z,1.08
2022-11-19T11:09:41.363Z,1.03
2022-11-19T11:12:36.872Z,1.06
2022-11-19T11:15:22.410Z,1.34
2022-11-19T11:18:06.681Z,1.46
2022-11-19T11:20:36.290Z,1.55
2022-11-19T11:23:27.231Z,1.69
2022-11-19T11:26:10.607Z,1.53
2022-11-19T11:28:55.531Z,1.43
2022-11-19T11:31:35.035Z,1.36
2022-11-19T11:34:03.119Z,1.36
2022-11-19T11:36:34.211Z,1.28
2022-11-19T11:39:03.793Z,1.32
2022-11-19T11:44:25.257Z,1.28
2022-11-19T11:46:58.863Z,1.11
2022-11-19T11:49:37.612Z,1.09
2022-11-19T11:52:04.815Z,0.88
2022-11-19T11:54:32.284Z,0.87
2022-11-19T11:57:19.547Z,0.78
2022-11-19T11:59:47.262Z,0.80
2022-11-19T12:02:32.106Z,0.84
2022-11-19T12:05:17.019Z,0.79
2022-11-19T12:08:05.340Z,0.79
2022-11-19T12:10:42.981Z,0.72
2022-11-19T12:13:28.174Z,0.76
2022-11-19T12:16:03.248Z,0.78
2022-11-19T12:18:58.388Z,0.74
2022-11-19T12:22:03.242Z,0.77
2022-11-19T12:25:01.781Z,0.79
2022-11-19T12:27:54.875Z,0.80
2022-11-19T12:30:27.354Z,0.76
2022-11-19T12:33:28.209Z,0.70
2022-11-19T12:36:23.234Z,0.76
2022-11-19T12:39:20.868Z,0.75
2022-11-19T12:42:19.450Z,0.74
2022-11-19T12:44:52.296Z,0.89
2022-11-19T12:47:51.815Z,0.95
2022-11-19T12:50:38.863Z,1.02
2022-11-19T12:53:12.093Z,1.04
2022-11-19T12:55:46.851Z,1.19
2022-11-19T12:58:38.555Z,1.18
2022-11-19T13:01:12.928Z,1.32
2022-11-19T13:04:14.155Z,1.36
2022-11-19T13:07:00.912Z,1.41
2022-11-19T13:09:38.785Z,1.42
2022-11-19T13:12:17.346Z,1.39
2022-11-19T13:15:00.528Z,1.34
2022-11-19T13:17:40.570Z,1.32
2022-11-19T13:20:24.942Z,1.37
2022-11-19T13:22:55.324Z,1.46
2022-11-19T13:26:01.236Z,1.42
2022-11-19T13:28:47.778Z,1.32
2022-11-19T13:31:33.356Z,1.39
2022-11-19T13:34:19.584Z,1.38
2022-11-19T13:36:58.851Z,1.38
2022-11-19T13:39:37.009Z,1.37
2022-11-19T13:42:23.263Z,1.48
2022-11-19T13:44:50.914Z,1.46
2022-11-19T13:47:31.080Z,1.55
2022-11-19T13:50:13.549Z,1.40
2022-11-19T13:52:57.886Z,1.26
2022-11-19T13:55:37.196Z,1.32
2022-11-19T13:58:17.188Z,1.28
2022-11-19T14:01:04.073Z,1.31
2022-11-19T14:04:15.593Z,1.31
2022-11-19T14:07:00.977Z,1.14
2022-11-19T14:09:47.036Z,1.22
2022-11-19T14:12:39.349Z,1.14
2022-11-19T14:15:56.129Z,1.13
2022-11-19T14:18:53.122Z,1.22
2022-11-19T14:21:46.035Z,1.19
2022-11-19T14:24:55.050Z,1.12
2022-11-19T14:27:26.960Z,1.11
2022-11-19T14:30:01.640Z,1.13
2022-11-19T14:32:34.865Z,1.13
2022-11-19T14:35:01.944Z,1.14
2022-11-19T14:37:40.217Z,1.07
2022-11-19T14:40:16.422Z,0.99
2022-11-19T14:43:20.302Z,1.01
2022-11-19T14:46:10.493Z,0.91
2022-11-19T14:48:40.525Z,0.86
2022-11-19T14:51:11.306Z,0.93
2022-11-19T14:53:51.776Z,0.98
2022-11-19T14:56:21.941Z,0.91
2022-11-19T14:58:53.293Z,0.92
2022-11-19T15:01:21.517Z,0.93
2022-11-19T15:03:57.531Z,0.94
2022-11-19T15:06:24.854Z,0.95
2022-11-19T15:08:54.036Z,0.89
2022-11-19T15:11:21.499Z,0.90
2022-11-19T15:14:09.601Z,0.89
2022-11-19T15:16:37.432Z,0.88
2022-11-19T15:19:39.762Z,0.93
2022-11-19T15:22:25.833Z,0.90
2022-11-19T15:25:13.908Z,0.86
2022-11-19T15:28:02.783Z,0.87
2022-11-19T15:30:47.892Z,0.92
2022-11-19T15:33:37.924Z,0.86
2022-11-19T15:36:12.726Z,0.75
2022-11-19T15:38:54.226Z,0.77
2022-11-19T15:41:25.394Z,0.79
2022-11-19T15:43:56.534Z,0.90
2022-11-19T15:46:51.192Z,1.01
2022-11-19T15:49:24.440Z,0.99
2022-11-19T15:52:03.458Z,0.87
2022-11-19T15:54:38.184Z,0.90
2022-11-19T15:57:21.782Z,0.91
2022-11-19T15:59:58.101Z,0.75
2022-11-19T16:02:33.137Z,0.75
2022-11-19T16:05:00.379Z,0.77
2022-11-19T16:07:29.381Z,0.72
2022-11-19T16:09:57.259Z,0.69
2022-11-19T16:12:45.403Z,0.79
2022-11-19T16:15:43.951Z,0.72
2022-11-19T16:18:16.220Z,0.77
2022-11-19T16:20:52.938Z,0.74
2022-11-19T16:23:23.083Z,0.77
2022-11-19T16:25:50.619Z,0.75
2022-11-19T16:28:20.120Z,0.86
2022-11-19T16:30:50.956Z,0.85
2022-11-19T16:33:23.590Z,0.79
2022-11-19T16:35:53.444Z,0.89
2022-11-19T16:38:28.010Z,0.77
2022-11-19T16:41:15.035Z,0.67
2022-11-19T16:43:48.710Z,0.67
2022-11-19T16:46:21.054Z,0.77
2022-11-19T16:48:55.008Z,0.83
2022-11-19T16:51:34.347Z,0.83
2022-11-19T16:54:01.758Z,0.74
2022-11-19T16:56:34.622Z,0.72
2022-11-19T16:59:03.997Z,0.74
2022-11-19T17:01:31.204Z,0.81
2022-11-19T17:04:03.265Z,0.65
2022-11-19T17:06:33.121Z,0.73
2022-11-19T17:09:01.466Z,0.64
2022-11-19T17:12:09.172Z,0.73
2022-11-19T17:14:36.279Z,0.75
2022-11-19T17:17:03.833Z,0.72
2022-11-19T17:19:35.802Z,0.69
2022-11-19T17:22:18.163Z,0.65
2022-11-19T17:24:46.633Z,0.61
2022-11-19T17:27:29.345Z,0.63
2022-11-19T17:30:09.181Z,0.69
2022-11-19T17:32:42.768Z,0.64
2022-11-19T17:35:29.556Z,0.66
2022-11-19T17:38:10.857Z,0.73
2022-11-19T17:40:48.898Z,0.75
2022-11-19T17:43:48.532Z,0.64
2022-11-19T17:46:15.991Z,0.72
2022-11-19T17:48:45.231Z,0.74
2022-11-19T17:51:13.975Z,0.74
2022-11-19T17:53:41.367Z,0.66
2022-11-19T17:56:20.182Z,0.63
2022-11-19T17:58:47.675Z,0.58
2022-11-19T18:01:16.755Z,0.69
2022-11-19T18:03:44.326Z,0.72
2022-11-19T18:06:16.586Z,0.69
2022-11-19T18:08:44.227Z,0.69
2022-11-19T18:11:20.974Z,0.64
2022-11-19T18:13:51.291Z,0.66
2022-11-19T18:16:20.310Z,0.65
2022-11-19T18:18:47.583Z,0.62
2022-11-19T18:21:16.166Z,0.61
2022-11-19T18:23:44.832Z,0.69
2022-11-19T18:26:13.298Z,0.56
2022-11-19T18:28:44.922Z,0.69
2022-11-19T18:31:23.393Z,0.64
2022-11-19T18:33:50.797Z,0.69
2022-11-19T18:36:18.368Z,0.77
2022-11-19T18:38:46.307Z,0.83
2022-11-19T18:41:14.988Z,0.86
2022-11-19T18:44:00.746Z,0.83
2022-11-19T18:46:28.003Z,0.88
2022-11-19T18:48:55.229Z,0.81
2022-11-19T18:51:23.669Z,0.78
2022-11-19T18:53:50.988Z,0.70
2022-11-19T18:56:19.548Z,0.63
2022-11-19T18:58:47.234Z,0.67
2022-11-19T19:01:16.217Z,0.60
2022-11-19T19:03:43.864Z,0.56
2022-11-19T19:06:11.136Z,0.61
2022-11-19T19:08:38.992Z,0.67
2022-11-19T19:11:27.184Z,0.71
2022-11-19T19:13:54.712Z,0.72
2022-11-19T19:16:22.453Z,0.75
2022-11-19T19:18:49.835Z,0.74
2022-11-19T19:21:19.668Z,0.66
2022-11-19T19:23:47.415Z,0.74
2022-11-19T19:26:16.168Z,0.82
2022-11-19T19:28:44.138Z,0.84
2022-11-19T19:31:16.405Z,0.66
2022-11-19T19:33:46.265Z,0.68
2022-11-19T19:36:14.335Z,0.65
2022-11-19T19:38:42.221Z,0.67
2022-11-19T19:41:21.124Z,0.70
2022-11-19T19:43:49.633Z,0.70
2022-11-19T19:46:19.178Z,0.73
2022-11-19T19:48:48.332Z,0.75
2022-11-19T19:51:16.715Z,0.77
2022-11-19T19:53:44.431Z,0.80
2022-11-19T19:56:14.341Z,0.73
2022-11-19T19:58:43.788Z,0.65
2022-11-19T20:01:11.987Z,0.59
2022-11-19T20:03:39.469Z,0.58
2022-11-19T20:06:08.011Z,0.67
2022-11-19T20:08:39.219Z,0.66
2022-11-19T20:11:17.771Z,0.63
2022-11-19T20:13:45.610Z,0.64
2022-11-19T20:16:18.155Z,0.66
2022-11-19T20:18:47.254Z,0.71
2022-11-19T20:21:16.586Z,0.65
2022-11-19T20:23:43.829Z,0.59
2022-11-19T20:26:13.155Z,0.55
2022-11-19T20:28:40.674Z,0.59
2022-11-19T20:31:19.226Z,0.64
2022-11-19T20:33:47.842Z,0.58
2022-11-19T20:36:15.981Z,0.62
2022-11-19T20:38:45.950Z,0.67
2022-11-19T20:41:33.324Z,0.59
2022-11-19T20:44:19.591Z,0.60
2022-11-19T20:47:04.787Z,0.56
2022-11-19T20:49:34.430Z,0.59
2022-11-19T20:52:03.190Z,0.63
2022-11-19T20:54:30.666Z,0.59
2022-11-19T20:56:58.459Z,0.62
2022-11-19T20:59:26.589Z,0.53
2022-11-19T21:01:54.964Z,0.59
2022-11-19T21:04:23.416Z,0.56
2022-11-19T21:06:50.686Z,0.57
2022-11-19T21:09:19.939Z,0.64
2022-11-19T21:11:47.632Z,0.59
2022-11-19T21:14:14.845Z,0.54
2022-11-19T21:16:42.055Z,0.62
2022-11-19T21:19:10.562Z,0.65
2022-11-19T21:21:38.041Z,0.66
2022-11-19T21:24:05.504Z,0.60
2022-11-19T21:26:33.038Z,0.66
2022-11-19T21:29:00.359Z,0.61
2022-11-19T21:31:39.263Z,0.62
2022-11-19T21:34:14.737Z,0.60
2022-11-19T21:36:42.802Z,0.62
2022-11-19T21:39:11.096Z,0.61
2022-11-19T21:41:38.370Z,0.62
2022-11-19T21:44:05.932Z,0.66
2022-11-19T21:46:33.906Z,0.60
2022-11-19T21:49:01.454Z,0.68
2022-11-19T21:51:28.808Z,0.64
2022-11-19T21:53:56.959Z,0.63
2022-11-19T21:56:25.029Z,0.50
2022-11-19T21:58:52.216Z,0.53
2022-11-19T22:01:19.607Z,0.53
2022-11-19T22:03:46.911Z,0.54
2022-11-19T22:06:14.162Z,0.50
2022-11-19T22:08:42.543Z,0.55
2022-11-19T22:11:31.872Z,0.64
2022-11-19T22:14:04.599Z,0.67
2022-11-19T22:16:34.696Z,0.62
2022-11-19T22:19:02.174Z,0.63
2022-11-19T22:21:29.924Z,0.53
2022-11-19T22:23:57.394Z,0.61
2022-11-19T22:26:24.621Z,0.66
2022-11-19T22:28:51.924Z,0.61
2022-11-19T22:31:19.164Z,0.53
2022-11-19T22:33:49.686Z,0.56
2022-11-19T22:36:17.426Z,0.54
2022-11-19T22:38:44.775Z,0.53
2022-11-19T22:41:16.813Z,0.59
2022-11-19T22:43:44.172Z,0.50
2022-11-19T22:46:13.171Z,0.45
2022-11-19T22:48:41.224Z,0.50
2022-11-19T22:51:14.258Z,0.48
2022-11-19T22:53:41.584Z,0.47
2022-11-19T22:56:11.044Z,0.42
2022-11-19T22:58:38.822Z,0.42
2022-11-19T23:01:07.410Z,0.45
2022-11-19T23:03:34.738Z,0.51
2022-11-19T23:06:01.989Z,0.51
2022-11-19T23:08:29.189Z,0.51
2022-11-19T23:11:00.684Z,0.49
2022-11-19T23:13:32.125Z,0.45
2022-11-19T23:16:17.180Z,0.36
2022-11-19T23:18:51.929Z,0.41
2022-11-19T23:21:24.298Z,0.34
2022-11-19T23:23:52.281Z,0.41
2022-11-19T23:26:22.454Z,0.41
2022-11-19T23:28:50.124Z,0.44
2022-11-19T23:31:22.549Z,0.41
2022-11-19T23:33:53.394Z,0.51
2022-11-19T23:36:27.656Z,0.54
2022-11-19T23:38:55.141Z,0.57
2022-11-19T23:41:22.751Z,0.45
2022-11-19T23:43:51.123Z,0.42
2022-11-19T23:46:26.151Z,0.38
2022-11-19T23:48:55.452Z,0.27
2022-11-19T23:51:31.252Z,0.25
2022-11-19T23:53:58.947Z,0.21
2022-11-19T23:56:26.788Z,0.23
2022-11-19T23:58:54.189Z,0.25
